Ana Sayfa
METAR-TAF:

METAR-TAF

Havaalanları :

Port Isabel-Cameron County Airport

Port Isabel, Teksas, Amerika Birleşik Devletleri

Enlem: 26-09-33N, Boylam: 097-20-15W, yükseklik: 5 m

Güncel hava durumu gözlemi

Rapor saat 00:53 UTC de 31 dakika önce yapıldı.
Rüzgar güney/güneydoğudan 15 kt
Sıcaklık 29°C
Nem 79%
Basınç 1008 hPa
Görüş mesafesi: 11.3 km
1900 ft yükseklikte az bulutlu

METAR: KPIL 200053Z AUTO 15015KT 7SM FEW019 29/25 A2977 RMK AO2 SLP079 T02940250

Saat: 20:24 (01:24 UTC)


TAF: eksik

4.000'den fazla havaalanı için hava durumu gözlemleri ve tahminleri (METAR ve TAF raporları).

Kullanılabilir istasyonlar harita üzerinde sarı ve kırmızı noktalarla gösterilir.

İstasyonun adını görmek için fareyi noktanın üzerinde gezdirin.

Sonrasında hava gözlem ve tahminlerini görmek için tıklayın.

Haritayı değiştirmek için: yaklaştırmak için siyah artı işaretli yeşil düğmeye ve uzaklaştırmak için de eksi işaretli düğmeye hızla tıklayın; bitişik haritalar için yeşil okları kullanın.


METAR-TAF: